ADDS METAR Data INFO
IDs: Format: Raw Decoded Include TAF

Data at: 0343 UTC 17 Oct 2017

KCNW 170255Z 35003KT 10SM SKC 12/05 A3029
KCNW 170155Z 35003KT 10SM SKC 14/05 A3028
KCNW 170055Z 36003KT 10SM SKC 16/04 A3026
KCNW 162355Z 01004KT 10SM SKC 20/03 A3025
KCNW 162255Z 01009KT 10SM SKC 23/02 A3025
KCNW 162155Z 36010G15KT 10SM SKC 24/02 A3025
KCNW 162055Z 02007G15KT 10SM SKC 24/02 A3026
KCNW 161955Z 36005G17KT 10SM SKC 23/03 A3029
KCNW 161855Z 36005G17KT 10SM SKC 23/03 A3029
KCNW 161755Z 36007KT 10SM SKC 21/04 A3037
KCNW 161650Z 36008KT 10SM SKC 20/06 A3040
KCNW 161555Z 03007KT 10SM SKC 18/06 A3041
KCNW 161455Z 03009KT 10SM SKC 16/06 A3041
KCNW 161350Z 01008KT 10SM SKC 13/07 A3040
KCNW 161255Z 36007KT 10SM SKC 09/07 A3038
KCNW 161155Z 35006KT 10SM SKC 10/07 A3037
KCNW 160355Z 35009KT 10SM SKC 16/04 A3033
KCNW 160255Z 36008KT 10SM SKC 17/04 A3031
KCNW 160155Z 35008KT 10SM SKC 17/05 A3030
KCNW 160055Z 35006KT 10SM SKC 18/04 A3028
KCNW 152355Z 36011KT 10SM SKC 21/04 A3024
KCNW 152255Z 35015G25KT 10SM SKC 23/05 A3022
KCNW 152155Z 36012G25KT 10SM SKC 24/06 A3021
KCNW 152055Z 33015G25KT 10SM SKC 25/07 A3021
KCNW 151955Z 36017G25KT 10SM SKC 24/09 A3022
KCNW 151855Z 34015G21KT 10SM SKC 22/12 A3024
KCNW 151755Z 35017G25KT 10SM SCT025 20/13 A3026
KCNW 151655Z 34016G26KT 10SM OVC023 19/13 A3026
KCNW 151555Z 35016G25KT 10SM OVC025 20/15 A3023